sensor_id;sensor_type;location;lat;lon;timestamp;pressure;altitude;pressure_sealevel;temperature;humidity
2681;BME280;1350;42.134;24.708;2023-04-23T00:01:06;99406.84;;;13.66;100.00
2681;BME280;1350;42.134;24.708;2023-04-23T00:03:36;99409.53;;;13.78;100.00
2681;BME280;1350;42.134;24.708;2023-04-23T00:06:05;99404.75;;;13.83;100.00
2681;BME280;1350;42.134;24.708;2023-04-23T00:08:33;99417.00;;;13.86;100.00
2681;BME280;1350;42.134;24.708;2023-04-23T00:11:01;99417.53;;;13.78;100.00
2681;BME280;1350;42.134;24.708;2023-04-23T00:13:28;99411.16;;;13.81;100.00
2681;BME280;1350;42.134;24.708;2023-04-23T00:15:55;99420.59;;;13.72;100.00
2681;BME280;1350;42.134;24.708;2023-04-23T00:18:22;99423.91;;;13.63;100.00
2681;BME280;1350;42.134;24.708;2023-04-23T00:20:49;99417.19;;;13.70;100.00
2681;BME280;1350;42.134;24.708;2023-04-23T00:23:16;99419.97;;;13.81;100.00
2681;BME280;1350;42.134;24.708;2023-04-23T00:25:44;99425.31;;;13.81;100.00
2681;BME280;1350;42.134;24.708;2023-04-23T00:28:11;99423.47;;;13.30;100.00
2681;BME280;1350;42.134;24.708;2023-04-23T00:30:38;99422.25;;;13.21;100.00
2681;BME280;1350;42.134;24.708;2023-04-23T00:33:04;99419.53;;;13.09;100.00
2681;BME280;1350;42.134;24.708;2023-04-23T00:35:31;99423.34;;;13.19;100.00
2681;BME280;1350;42.134;24.708;2023-04-23T00:37:58;99419.34;;;13.12;100.00
2681;BME280;1350;42.134;24.708;2023-04-23T00:40:25;99423.16;;;13.08;100.00
2681;BME280;1350;42.134;24.708;2023-04-23T00:42:53;99425.78;;;13.22;100.00
2681;BME280;1350;42.134;24.708;2023-04-23T00:45:22;99426.41;;;12.99;100.00
2681;BME280;1350;42.134;24.708;2023-04-23T00:47:49;99435.16;;;13.01;100.00
2681;BME280;1350;42.134;24.708;2023-04-23T00:50:15;99429.88;;;12.99;100.00
2681;BME280;1350;42.134;24.708;2023-04-23T00:52:43;99434.97;;;12.90;100.00
2681;BME280;1350;42.134;24.708;2023-04-23T00:55:09;99442.47;;;12.97;100.00
2681;BME280;1350;42.134;24.708;2023-04-23T00:57:36;99443.53;;;12.81;100.00
2681;BME280;1350;42.134;24.708;2023-04-23T01:00:06;99440.91;;;12.67;100.00
2681;BME280;1350;42.134;24.708;2023-04-23T01:02:34;99441.94;;;12.64;100.00
2681;BME280;1350;42.134;24.708;2023-04-23T01:05:03;99434.63;;;12.54;100.00
2681;BME280;1350;42.134;24.708;2023-04-23T01:07:33;99446.13;;;12.40;100.00
2681;BME280;1350;42.134;24.708;2023-04-23T01:10:01;99449.66;;;12.27;100.00
2681;BME280;1350;42.134;24.708;2023-04-23T01:12:28;99445.53;;;12.21;100.00
2681;BME280;1350;42.134;24.708;2023-04-23T01:14:55;99450.94;;;12.06;100.00
2681;BME280;1350;42.134;24.708;2023-04-23T01:17:23;99452.38;;;12.11;100.00
2681;BME280;1350;42.134;24.708;2023-04-23T01:19:51;99445.59;;;12.06;100.00
2681;BME280;1350;42.134;24.708;2023-04-23T01:22:19;99450.13;;;12.19;100.00
2681;BME280;1350;42.134;24.708;2023-04-23T01:24:46;99451.91;;;12.19;100.00
2681;BME280;1350;42.134;24.708;2023-04-23T01:27:14;99453.78;;;12.17;100.00
2681;BME280;1350;42.134;24.708;2023-04-23T01:29:43;99448.28;;;12.06;100.00
2681;BME280;1350;42.134;24.708;2023-04-23T01:32:11;99442.50;;;11.99;100.00
2681;BME280;1350;42.134;24.708;2023-04-23T01:34:38;99443.78;;;11.92;100.00
2681;BME280;1350;42.134;24.708;2023-04-23T01:37:06;99444.44;;;11.81;100.00
2681;BME280;1350;42.134;24.708;2023-04-23T01:39:34;99449.66;;;11.83;100.00
2681;BME280;1350;42.134;24.708;2023-04-23T01:42:01;99442.31;;;11.72;100.00
2681;BME280;1350;42.134;24.708;2023-04-23T01:44:28;99451.72;;;11.78;100.00
2681;BME280;1350;42.134;24.708;2023-04-23T01:46:55;99454.28;;;11.79;100.00
2681;BME280;1350;42.134;24.708;2023-04-23T01:49:22;99455.34;;;11.77;100.00
2681;BME280;1350;42.134;24.708;2023-04-23T01:51:49;99453.19;;;11.83;100.00
2681;BME280;1350;42.134;24.708;2023-04-23T01:54:16;99454.19;;;11.81;100.00
2681;BME280;1350;42.134;24.708;2023-04-23T01:56:44;99454.50;;;11.90;100.00
2681;BME280;1350;42.134;24.708;2023-04-23T01:59:11;99463.03;;;11.81;100.00
2681;BME280;1350;42.134;24.708;2023-04-23T02:01:41;99458.25;;;11.72;100.00
2681;BME280;1350;42.134;24.708;2023-04-23T02:04:09;99457.66;;;11.67;100.00
2681;BME280;1350;42.134;24.708;2023-04-23T02:06:37;99458.19;;;11.58;100.00
2681;BME280;1350;42.134;24.708;2023-04-23T02:09:04;99459.03;;;11.59;100.00
2681;BME280;1350;42.134;24.708;2023-04-23T02:11:31;99454.66;;;11.73;100.00
2681;BME280;1350;42.134;24.708;2023-04-23T02:13:59;99451.91;;;11.75;100.00
2681;BME280;1350;42.134;24.708;2023-04-23T02:16:26;99456.19;;;11.77;100.00
2681;BME280;1350;42.134;24.708;2023-04-23T02:18:53;99458.25;;;11.72;100.00
2681;BME280;1350;42.134;24.708;2023-04-23T02:21:21;99459.69;;;11.78;100.00
2681;BME280;1350;42.134;24.708;2023-04-23T02:23:48;99453.22;;;11.98;100.00
2681;BME280;1350;42.134;24.708;2023-04-23T02:26:15;99458.75;;;11.79;100.00
2681;BME280;1350;42.134;24.708;2023-04-23T02:28:43;99462.44;;;11.76;100.00
2681;BME280;1350;42.134;24.708;2023-04-23T02:31:11;99459.03;;;11.88;100.00
2681;BME280;1350;42.134;24.708;2023-04-23T02:33:38;99460.22;;;11.69;100.00
2681;BME280;1350;42.134;24.708;2023-04-23T02:36:06;99458.81;;;11.63;100.00
2681;BME280;1350;42.134;24.708;2023-04-23T02:38:33;99459.53;;;11.65;100.00
2681;BME280;1350;42.134;24.708;2023-04-23T02:40:59;99461.72;;;11.88;100.00
2681;BME280;1350;42.134;24.708;2023-04-23T02:43:26;99455.88;;;12.12;100.00
2681;BME280;1350;42.134;24.708;2023-04-23T02:45:53;99461.72;;;11.88;100.00
2681;BME280;1350;42.134;24.708;2023-04-23T02:48:21;99462.06;;;11.82;100.00
2681;BME280;1350;42.134;24.708;2023-04-23T02:50:48;99464.91;;;11.79;100.00
2681;BME280;1350;42.134;24.708;2023-04-23T02:53:14;99466.41;;;11.69;100.00
2681;BME280;1350;42.134;24.708;2023-04-23T02:55:41;99465.59;;;11.83;100.00
2681;BME280;1350;42.134;24.708;2023-04-23T02:58:08;99461.78;;;11.73;100.00
2681;BME280;1350;42.134;24.708;2023-04-23T03:00:35;99464.34;;;11.74;100.00
2681;BME280;1350;42.134;24.708;2023-04-23T03:03:01;99469.06;;;11.69;100.00
2681;BME280;1350;42.134;24.708;2023-04-23T03:05:29;99475.16;;;11.71;100.00
2681;BME280;1350;42.134;24.708;2023-04-23T03:07:56;99466.81;;;11.77;100.00
2681;BME280;1350;42.134;24.708;2023-04-23T03:10:23;99473.69;;;11.66;100.00
2681;BME280;1350;42.134;24.708;2023-04-23T03:12:50;99476.53;;;11.63;100.00
2681;BME280;1350;42.134;24.708;2023-04-23T03:15:16;99479.41;;;11.74;100.00
2681;BME280;1350;42.134;24.708;2023-04-23T03:17:43;99481.31;;;11.72;100.00
2681;BME280;1350;42.134;24.708;2023-04-23T03:20:10;99476.69;;;11.75;100.00
2681;BME280;1350;42.134;24.708;2023-04-23T03:22:39;99484.91;;;11.71;100.00
2681;BME280;1350;42.134;24.708;2023-04-23T03:25:06;99485.97;;;11.68;100.00
2681;BME280;1350;42.134;24.708;2023-04-23T03:27:33;99490.13;;;11.57;100.00
2681;BME280;1350;42.134;24.708;2023-04-23T03:29:59;99489.81;;;11.32;100.00
2681;BME280;1350;42.134;24.708;2023-04-23T03:32:26;99494.63;;;11.25;100.00
2681;BME280;1350;42.134;24.708;2023-04-23T03:34:53;99498.56;;;11.18;100.00
2681;BME280;1350;42.134;24.708;2023-04-23T03:37:19;99488.03;;;11.17;100.00
2681;BME280;1350;42.134;24.708;2023-04-23T03:39:47;99498.56;;;11.18;100.00
2681;BME280;1350;42.134;24.708;2023-04-23T03:42:15;99489.63;;;11.35;100.00
2681;BME280;1350;42.134;24.708;2023-04-23T03:44:42;99491.47;;;11.34;100.00
2681;BME280;1350;42.134;24.708;2023-04-23T03:47:09;99494.47;;;11.28;100.00
2681;BME280;1350;42.134;24.708;2023-04-23T03:49:35;99500.34;;;11.33;100.00
2681;BME280;1350;42.134;24.708;2023-04-23T03:52:02;99503.19;;;11.30;100.00
2681;BME280;1350;42.134;24.708;2023-04-23T03:54:29;99500.00;;;11.39;100.00
2681;BME280;1350;42.134;24.708;2023-04-23T03:56:57;99498.47;;;11.04;100.00
2681;BME280;1350;42.134;24.708;2023-04-23T03:59:24;99506.88;;;11.12;100.00
2681;BME280;1350;42.134;24.708;2023-04-23T04:01:51;99501.13;;;11.20;100.00
2681;BME280;1350;42.134;24.708;2023-04-23T04:04:18;99506.25;;;11.23;100.00
2681;BME280;1350;42.134;24.708;2023-04-23T04:06:45;99510.03;;;11.34;100.00
2681;BME280;1350;42.134;24.708;2023-04-23T04:09:11;99518.56;;;11.39;100.00
2681;BME280;1350;42.134;24.708;2023-04-23T04:11:38;99514.03;;;11.72;100.00
2681;BME280;1350;42.134;24.708;2023-04-23T04:14:06;99523.72;;;12.03;100.00
2681;BME280;1350;42.134;24.708;2023-04-23T04:16:33;99527.25;;;12.04;100.00
2681;BME280;1350;42.134;24.708;2023-04-23T04:19:00;99527.78;;;12.38;100.00
2681;BME280;1350;42.134;24.708;2023-04-23T04:21:27;99535.31;;;12.60;100.00
2681;BME280;1350;42.134;24.708;2023-04-23T04:23:54;99531.16;;;13.12;100.00
2681;BME280;1350;42.134;24.708;2023-04-23T04:26:21;99537.25;;;13.54;100.00
2681;BME280;1350;42.134;24.708;2023-04-23T04:28:48;99534.69;;;13.80;100.00
2681;BME280;1350;42.134;24.708;2023-04-23T04:31:17;99533.84;;;13.79;100.00
2681;BME280;1350;42.134;24.708;2023-04-23T04:33:46;99540.84;;;14.19;100.00
2681;BME280;1350;42.134;24.708;2023-04-23T04:36:13;99547.38;;;14.54;100.00
2681;BME280;1350;42.134;24.708;2023-04-23T04:38:39;99547.06;;;14.59;100.00
2681;BME280;1350;42.134;24.708;2023-04-23T04:41:06;99546.59;;;14.90;100.00
2681;BME280;1350;42.134;24.708;2023-04-23T04:43:33;99554.25;;;15.32;98.30
2681;BME280;1350;42.134;24.708;2023-04-23T04:46:00;99556.53;;;15.62;95.60
2681;BME280;1350;42.134;24.708;2023-04-23T04:48:28;99561.59;;;16.01;93.59
2681;BME280;1350;42.134;24.708;2023-04-23T04:50:55;99567.53;;;16.17;91.80
2681;BME280;1350;42.134;24.708;2023-04-23T04:53:22;99570.16;;;16.06;91.45
2681;BME280;1350;42.134;24.708;2023-04-23T04:55:49;99570.13;;;15.82;93.31
2681;BME280;1350;42.134;24.708;2023-04-23T04:58:16;99566.75;;;15.80;92.91
2681;BME280;1350;42.134;24.708;2023-04-23T05:00:42;99577.50;;;15.55;93.59
2681;BME280;1350;42.134;24.708;2023-04-23T05:03:11;99572.81;;;15.59;93.47
2681;BME280;1350;42.134;24.708;2023-04-23T05:05:39;99576.72;;;15.04;96.25
2681;BME280;1350;42.134;24.708;2023-04-23T05:08:05;99570.56;;;14.79;100.00
2681;BME280;1350;42.134;24.708;2023-04-23T05:10:33;99570.97;;;14.60;100.00
2681;BME280;1350;42.134;24.708;2023-04-23T05:12:59;99568.59;;;14.68;100.00
2681;BME280;1350;42.134;24.708;2023-04-23T05:15:26;99569.97;;;14.10;100.00
2681;BME280;1350;42.134;24.708;2023-04-23T05:17:53;99579.59;;;13.86;100.00
2681;BME280;1350;42.134;24.708;2023-04-23T05:20:20;99578.38;;;14.04;100.00
2681;BME280;1350;42.134;24.708;2023-04-23T05:22:49;99579.06;;;13.93;100.00
2681;BME280;1350;42.134;24.708;2023-04-23T05:25:15;99572.50;;;13.99;100.00
2681;BME280;1350;42.134;24.708;2023-04-23T05:27:42;99581.16;;;13.76;100.00
2681;BME280;1350;42.134;24.708;2023-04-23T05:30:10;99577.88;;;13.85;100.00
2681;BME280;1350;42.134;24.708;2023-04-23T05:32:37;99579.88;;;14.08;100.00
2681;BME280;1350;42.134;24.708;2023-04-23T05:35:04;99578.38;;;14.30;100.00
2681;BME280;1350;42.134;24.708;2023-04-23T05:37:31;99581.19;;;14.54;100.00
2681;BME280;1350;42.134;24.708;2023-04-23T05:39:59;99589.44;;;14.76;100.00
2681;BME280;1350;42.134;24.708;2023-04-23T05:42:29;99585.94;;;15.00;100.00
2681;BME280;1350;42.134;24.708;2023-04-23T05:44:56;99590.41;;;15.12;100.00
2681;BME280;1350;42.134;24.708;2023-04-23T05:47:22;99588.53;;;15.25;100.00
2681;BME280;1350;42.134;24.708;2023-04-23T05:49:49;99597.22;;;15.42;100.00
2681;BME280;1350;42.134;24.708;2023-04-23T05:52:16;99591.53;;;15.59;100.00
2681;BME280;1350;42.134;24.708;2023-04-23T05:54:43;99597.28;;;15.65;100.00
2681;BME280;1350;42.134;24.708;2023-04-23T05:57:11;99594.31;;;15.57;100.00
2681;BME280;1350;42.134;24.708;2023-04-23T05:59:38;99605.31;;;15.53;100.00
2681;BME280;1350;42.134;24.708;2023-04-23T06:02:05;99598.75;;;15.69;100.00
2681;BME280;1350;42.134;24.708;2023-04-23T06:04:32;99603.78;;;15.61;100.00
2681;BME280;1350;42.134;24.708;2023-04-23T06:06:59;99601.66;;;15.66;100.00
2681;BME280;1350;42.134;24.708;2023-04-23T06:09:26;99607.56;;;15.59;100.00
2681;BME280;1350;42.134;24.708;2023-04-23T06:11:52;99607.22;;;15.87;100.00
2681;BME280;1350;42.134;24.708;2023-04-23T06:14:21;99602.34;;;15.81;100.00
2681;BME280;1350;42.134;24.708;2023-04-23T06:16:48;99600.00;;;15.76;99.95
2681;BME280;1350;42.134;24.708;2023-04-23T06:19:14;99604.91;;;15.82;100.00
2681;BME280;1350;42.134;24.708;2023-04-23T06:21:41;99602.00;;;15.62;100.00
2681;BME280;1350;42.134;24.708;2023-04-23T06:24:08;99602.56;;;15.42;100.00
2681;BME280;1350;42.134;24.708;2023-04-23T06:26:35;99608.13;;;15.26;100.00
2681;BME280;1350;42.134;24.708;2023-04-23T06:29:01;99605.78;;;15.09;100.00
2681;BME280;1350;42.134;24.708;2023-04-23T06:31:30;99603.31;;;15.44;100.00
2681;BME280;1350;42.134;24.708;2023-04-23T06:33:56;99599.31;;;15.62;100.00
2681;BME280;1350;42.134;24.708;2023-04-23T06:36:23;99609.88;;;15.76;100.00
2681;BME280;1350;42.134;24.708;2023-04-23T06:38:50;99606.59;;;15.60;100.00
2681;BME280;1350;42.134;24.708;2023-04-23T06:41:17;99600.59;;;15.56;100.00
2681;BME280;1350;42.134;24.708;2023-04-23T06:43:44;99606.59;;;15.60;100.00
2681;BME280;1350;42.134;24.708;2023-04-23T06:46:12;99606.31;;;15.75;100.00
2681;BME280;1350;42.134;24.708;2023-04-23T06:48:40;99607.03;;;15.90;100.00
2681;BME280;1350;42.134;24.708;2023-04-23T06:51:07;99608.63;;;16.16;98.48
2681;BME280;1350;42.134;24.708;2023-04-23T06:53:34;99603.78;;;16.21;96.50
2681;BME280;1350;42.134;24.708;2023-04-23T06:56:01;99605.59;;;16.44;95.25
2681;BME280;1350;42.134;24.708;2023-04-23T06:58:28;99611.41;;;16.61;95.58
2681;BME280;1350;42.134;24.708;2023-04-23T07:00:56;99610.78;;;16.58;95.07
2681;BME280;1350;42.134;24.708;2023-04-23T07:03:25;99607.03;;;16.71;93.82
2681;BME280;1350;42.134;24.708;2023-04-23T07:05:54;99610.28;;;16.99;92.69
2681;BME280;1350;42.134;24.708;2023-04-23T07:08:20;99602.63;;;17.05;92.26
2681;BME280;1350;42.134;24.708;2023-04-23T07:10:47;99611.75;;;17.36;90.41
2681;BME280;1350;42.134;24.708;2023-04-23T07:13:14;99609.94;;;17.69;88.16
2681;BME280;1350;42.134;24.708;2023-04-23T07:15:41;99613.66;;;18.00;86.44
2681;BME280;1350;42.134;24.708;2023-04-23T07:18:08;99606.41;;;18.11;85.49
2681;BME280;1350;42.134;24.708;2023-04-23T07:20:35;99603.13;;;18.51;83.83
2681;BME280;1350;42.134;24.708;2023-04-23T07:23:04;99608.91;;;19.58;80.84
2681;BME280;1350;42.134;24.708;2023-04-23T07:25:31;99605.28;;;20.28;75.51
2681;BME280;1350;42.134;24.708;2023-04-23T07:27:57;99604.13;;;20.97;68.23
2681;BME280;1350;42.134;24.708;2023-04-23T07:30:25;99599.66;;;21.61;63.82
2681;BME280;1350;42.134;24.708;2023-04-23T07:32:53;99607.56;;;21.82;61.29
2681;BME280;1350;42.134;24.708;2023-04-23T07:35:21;99598.94;;;21.59;60.56
2681;BME280;1350;42.134;24.708;2023-04-23T07:37:48;99596.38;;;21.94;60.61
2681;BME280;1350;42.134;24.708;2023-04-23T07:40:20;99600.88;;;22.21;58.84
2681;BME280;1350;42.134;24.708;2023-04-23T07:42:47;99591.88;;;22.47;57.76
2681;BME280;1350;42.134;24.708;2023-04-23T07:45:14;99593.84;;;22.98;57.12
2681;BME280;1350;42.134;24.708;2023-04-23T07:47:41;99590.13;;;21.94;58.01
2681;BME280;1350;42.134;24.708;2023-04-23T07:50:08;99587.09;;;22.59;57.72
2681;BME280;1350;42.134;24.708;2023-04-23T07:52:35;99590.44;;;22.96;55.25
2681;BME280;1350;42.134;24.708;2023-04-23T07:55:12;99582.06;;;23.58;55.29
2681;BME280;1350;42.134;24.708;2023-04-23T07:57:40;99575.75;;;23.91;53.98
2681;BME280;1350;42.134;24.708;2023-04-23T08:00:07;99584.03;;;23.48;53.76
2681;BME280;1350;42.134;24.708;2023-04-23T08:02:35;99588.44;;;23.83;52.30
2681;BME280;1350;42.134;24.708;2023-04-23T08:05:02;99583.19;;;24.39;51.42
2681;BME280;1350;42.134;24.708;2023-04-23T08:07:29;99589.19;;;24.99;49.62
2681;BME280;1350;42.134;24.708;2023-04-23T08:09:56;99580.69;;;25.02;48.51
2681;BME280;1350;42.134;24.708;2023-04-23T08:12:27;99586.56;;;25.37;48.46
2681;BME280;1350;42.134;24.708;2023-04-23T08:14:55;99574.28;;;25.57;48.26
2681;BME280;1350;42.134;24.708;2023-04-23T08:17:22;99576.09;;;24.62;48.55
2681;BME280;1350;42.134;24.708;2023-04-23T08:19:49;99572.13;;;24.08;50.29
2681;BME280;1350;42.134;24.708;2023-04-23T08:22:15;99569.50;;;24.80;49.83
2681;BME280;1350;42.134;24.708;2023-04-23T08:24:42;99567.25;;;25.16;47.97
2681;BME280;1350;42.134;24.708;2023-04-23T08:27:09;99567.91;;;25.34;47.32
2681;BME280;1350;42.134;24.708;2023-04-23T08:29:36;99569.63;;;25.19;47.59
2681;BME280;1350;42.134;24.708;2023-04-23T08:32:04;99575.25;;;24.61;48.16
2681;BME280;1350;42.134;24.708;2023-04-23T08:34:31;99571.03;;;24.75;47.76
2681;BME280;1350;42.134;24.708;2023-04-23T08:36:58;99562.50;;;24.14;48.92
2681;BME280;1350;42.134;24.708;2023-04-23T08:39:24;99561.28;;;23.33;50.48
2681;BME280;1350;42.134;24.708;2023-04-23T08:41:54;99561.13;;;23.09;51.47
2681;BME280;1350;42.134;24.708;2023-04-23T08:44:22;99561.53;;;23.22;51.70
2681;BME280;1350;42.134;24.708;2023-04-23T08:46:49;99548.00;;;23.22;51.67
2681;BME280;1350;42.134;24.708;2023-04-23T08:49:19;99551.41;;;23.24;51.89
2681;BME280;1350;42.134;24.708;2023-04-23T08:51:49;99553.50;;;22.09;54.53
2681;BME280;1350;42.134;24.708;2023-04-23T08:54:20;99555.22;;;21.55;55.20
2681;BME280;1350;42.134;24.708;2023-04-23T08:56:48;99546.72;;;21.50;56.26
2681;BME280;1350;42.134;24.708;2023-04-23T08:59:17;99550.56;;;21.85;55.50
2681;BME280;1350;42.134;24.708;2023-04-23T09:01:45;99546.94;;;21.94;55.82
2681;BME280;1350;42.134;24.708;2023-04-23T09:04:13;99543.84;;;21.61;55.67
2681;BME280;1350;42.134;24.708;2023-04-23T09:06:42;99539.50;;;21.14;58.34
2681;BME280;1350;42.134;24.708;2023-04-23T09:09:10;99536.00;;;21.31;57.54
2681;BME280;1350;42.134;24.708;2023-04-23T09:11:38;99533.13;;;21.42;56.45
2681;BME280;1350;42.134;24.708;2023-04-23T09:14:05;99535.41;;;20.91;55.67
2681;BME280;1350;42.134;24.708;2023-04-23T09:16:32;99533.66;;;20.35;56.42
2681;BME280;1350;42.134;24.708;2023-04-23T09:18:58;99540.44;;;20.67;55.41
2681;BME280;1350;42.134;24.708;2023-04-23T09:21:25;99537.56;;;21.61;54.00
2681;BME280;1350;42.134;24.708;2023-04-23T09:23:53;99535.41;;;21.37;52.45
2681;BME280;1350;42.134;24.708;2023-04-23T09:26:21;99535.88;;;21.60;51.23
2681;BME280;1350;42.134;24.708;2023-04-23T09:28:48;99517.38;;;22.45;50.02
2681;BME280;1350;42.134;24.708;2023-04-23T09:31:19;99518.78;;;22.74;50.76
2681;BME280;1350;42.134;24.708;2023-04-23T09:33:50;99520.94;;;23.22;50.63
2681;BME280;1350;42.134;24.708;2023-04-23T09:36:19;99517.06;;;22.91;49.75
2681;BME280;1350;42.134;24.708;2023-04-23T09:38:47;99518.81;;;23.00;47.96
2681;BME280;1350;42.134;24.708;2023-04-23T09:41:22;99514.91;;;22.16;47.95
2681;BME280;1350;42.134;24.708;2023-04-23T09:43:52;99522.13;;;21.53;49.01
2681;BME280;1350;42.134;24.708;2023-04-23T09:46:31;99511.06;;;22.19;48.61
2681;BME280;1350;42.134;24.708;2023-04-23T09:48:59;99495.59;;;22.46;47.47
2681;BME280;1350;42.134;24.708;2023-04-23T09:51:28;99499.13;;;23.23;47.16
2681;BME280;1350;42.134;24.708;2023-04-23T09:53:56;99507.97;;;21.79;47.36
2681;BME280;1350;42.134;24.708;2023-04-23T09:56:24;99500.00;;;21.77;47.06
2681;BME280;1350;42.134;24.708;2023-04-23T09:58:51;99499.00;;;21.78;46.20
2681;BME280;1350;42.134;24.708;2023-04-23T10:01:26;99490.75;;;22.15;47.50
2681;BME280;1350;42.134;24.708;2023-04-23T10:03:54;99496.91;;;21.18;46.96
2681;BME280;1350;42.134;24.708;2023-04-23T10:06:26;99498.66;;;21.09;47.63
2681;BME280;1350;42.134;24.708;2023-04-23T10:08:55;99494.78;;;20.56;48.05
2681;BME280;1350;42.134;24.708;2023-04-23T10:11:22;99495.63;;;21.66;47.08
2681;BME280;1350;42.134;24.708;2023-04-23T10:13:52;99488.97;;;22.06;46.18
2681;BME280;1350;42.134;24.708;2023-04-23T10:16:21;99481.94;;;22.30;45.98
2681;BME280;1350;42.134;24.708;2023-04-23T10:18:50;99479.22;;;22.91;44.90
2681;BME280;1350;42.134;24.708;2023-04-23T10:21:18;99474.00;;;23.31;43.80
2681;BME280;1350;42.134;24.708;2023-04-23T10:23:46;99472.03;;;22.82;44.46
2681;BME280;1350;42.134;24.708;2023-04-23T10:26:15;99446.13;;;21.58;45.56
2681;BME280;1350;42.134;24.708;2023-04-23T10:28:46;99465.56;;;21.34;45.71
2681;BME280;1350;42.134;24.708;2023-04-23T10:31:15;99462.66;;;21.28;46.59
2681;BME280;1350;42.134;24.708;2023-04-23T10:33:43;99453.50;;;21.11;46.70
2681;BME280;1350;42.134;24.708;2023-04-23T10:36:10;99447.66;;;21.60;46.87
2681;BME280;1350;42.134;24.708;2023-04-23T10:38:38;99447.56;;;21.97;45.38
2681;BME280;1350;42.134;24.708;2023-04-23T10:41:07;99437.06;;;22.55;44.98
2681;BME280;1350;42.134;24.708;2023-04-23T10:43:34;99443.34;;;22.89;45.00
2681;BME280;1350;42.134;24.708;2023-04-23T10:46:01;99446.81;;;21.60;44.83
2681;BME280;1350;42.134;24.708;2023-04-23T10:49:03;99444.53;;;21.83;45.22
2681;BME280;1350;42.134;24.708;2023-04-23T10:51:34;99433.28;;;22.05;44.56
2681;BME280;1350;42.134;24.708;2023-04-23T10:54:04;99425.19;;;22.30;43.89
2681;BME280;1350;42.134;24.708;2023-04-23T10:56:30;99426.47;;;21.65;45.05
2681;BME280;1350;42.134;24.708;2023-04-23T10:58:57;99416.78;;;21.28;45.60
2681;BME280;1350;42.134;24.708;2023-04-23T11:01:24;99426.50;;;20.84;46.77
2681;BME280;1350;42.134;24.708;2023-04-23T11:03:53;99421.28;;;21.54;46.01
2681;BME280;1350;42.134;24.708;2023-04-23T11:06:50;99422.75;;;20.95;45.57
2681;BME280;1350;42.134;24.708;2023-04-23T11:09:38;99412.78;;;21.77;44.93
2681;BME280;1350;42.134;24.708;2023-04-23T11:12:06;99405.25;;;21.88;44.42
2681;BME280;1350;42.134;24.708;2023-04-23T11:14:42;99403.16;;;21.02;46.22
2681;BME280;1350;42.134;24.708;2023-04-23T11:17:12;99407.41;;;21.49;45.45
2681;BME280;1350;42.134;24.708;2023-04-23T11:22:33;99402.53;;;21.80;44.78
2681;BME280;1350;42.134;24.708;2023-04-23T11:25:01;99390.63;;;22.34;43.77
2681;BME280;1350;42.134;24.708;2023-04-23T11:27:29;99396.66;;;22.53;42.89
2681;BME280;1350;42.134;24.708;2023-04-23T11:29:56;99391.81;;;22.57;42.92
2681;BME280;1350;42.134;24.708;2023-04-23T11:32:23;99399.25;;;22.96;42.19
2681;BME280;1350;42.134;24.708;2023-04-23T11:34:54;99391.16;;;21.77;43.62
2681;BME280;1350;42.134;24.708;2023-04-23T11:37:23;99391.44;;;21.91;44.76
2681;BME280;1350;42.134;24.708;2023-04-23T11:39:50;99387.59;;;22.62;43.85
2681;BME280;1350;42.134;24.708;2023-04-23T11:42:17;99381.97;;;21.87;44.16
2681;BME280;1350;42.134;24.708;2023-04-23T11:44:45;99383.69;;;21.08;45.02
2681;BME280;1350;42.134;24.708;2023-04-23T11:47:13;99389.47;;;21.13;45.77
2681;BME280;1350;42.134;24.708;2023-04-23T11:49:42;99373.50;;;21.64;45.61
2681;BME280;1350;42.134;24.708;2023-04-23T11:52:11;99366.91;;;22.02;45.33
2681;BME280;1350;42.134;24.708;2023-04-23T11:54:39;99364.13;;;22.63;44.42
2681;BME280;1350;42.134;24.708;2023-04-23T11:57:08;99357.22;;;22.17;45.28
2681;BME280;1350;42.134;24.708;2023-04-23T11:59:36;99356.22;;;22.44;45.76
2681;BME280;1350;42.134;24.708;2023-04-23T12:02:03;99359.50;;;22.89;44.55
2681;BME280;1350;42.134;24.708;2023-04-23T12:04:30;99355.75;;;22.23;44.53
2681;BME280;1350;42.134;24.708;2023-04-23T12:06:57;99360.56;;;21.23;45.77
2681;BME280;1350;42.134;24.708;2023-04-23T12:09:27;99354.22;;;21.77;46.08
2681;BME280;1350;42.134;24.708;2023-04-23T12:11:55;99353.44;;;21.49;45.13
2681;BME280;1350;42.134;24.708;2023-04-23T12:14:25;99351.59;;;21.32;44.97
2681;BME280;1350;42.134;24.708;2023-04-23T12:16:53;99333.50;;;20.98;45.64
2681;BME280;1350;42.134;24.708;2023-04-23T12:19:25;99331.09;;;20.95;46.13
2681;BME280;1350;42.134;24.708;2023-04-23T12:21:53;99326.94;;;21.00;45.54
2681;BME280;1350;42.134;24.708;2023-04-23T12:24:21;99325.66;;;21.04;45.69
2681;BME280;1350;42.134;24.708;2023-04-23T12:26:51;99327.16;;;21.34;45.29
2681;BME280;1350;42.134;24.708;2023-04-23T12:29:20;99324.25;;;21.00;45.06
2681;BME280;1350;42.134;24.708;2023-04-23T12:31:48;99319.50;;;21.12;44.58
2681;BME280;1350;42.134;24.708;2023-04-23T12:34:15;99317.22;;;21.52;44.43
2681;BME280;1350;42.134;24.708;2023-04-23T12:36:46;99312.81;;;21.33;43.49
2681;BME280;1350;42.134;24.708;2023-04-23T12:39:20;99313.28;;;20.84;44.15
2681;BME280;1350;42.134;24.708;2023-04-23T12:41:49;99306.50;;;20.80;43.46
2681;BME280;1350;42.134;24.708;2023-04-23T12:44:16;99310.03;;;20.81;44.17
2681;BME280;1350;42.134;24.708;2023-04-23T12:46:43;99306.94;;;21.20;42.97
2681;BME280;1350;42.134;24.708;2023-04-23T12:49:10;99302.31;;;21.65;42.65
2681;BME280;1350;42.134;24.708;2023-04-23T12:51:37;99299.19;;;21.96;42.24
2681;BME280;1350;42.134;24.708;2023-04-23T12:54:03;99300.09;;;21.79;41.91
2681;BME280;1350;42.134;24.708;2023-04-23T12:56:30;99297.25;;;21.27;41.80
2681;BME280;1350;42.134;24.708;2023-04-23T12:58:58;99292.72;;;21.28;42.32
2681;BME280;1350;42.134;24.708;2023-04-23T13:01:26;99301.41;;;21.39;42.35
2681;BME280;1350;42.134;24.708;2023-04-23T13:03:53;99294.41;;;21.90;41.47
2681;BME280;1350;42.134;24.708;2023-04-23T13:06:20;99295.03;;;21.84;40.68
2681;BME280;1350;42.134;24.708;2023-04-23T13:08:47;99287.63;;;22.11;41.05
2681;BME280;1350;42.134;24.708;2023-04-23T13:11:13;99286.47;;;22.14;41.27